sensor_id;sensor_type;location;lat;lon;timestamp;pressure;altitude;pressure_sealevel;temperature;humidity
19884;BME280;10104;50.732;10.174;2023-04-27T00:00:56;98075.06;;;7.31;62.61
19884;BME280;10104;50.732;10.174;2023-04-27T00:03:17;98083.44;;;7.35;62.77
19884;BME280;10104;50.732;10.174;2023-04-27T00:05:39;98077.03;;;7.38;62.21
19884;BME280;10104;50.732;10.174;2023-04-27T00:08:01;98076.56;;;7.34;63.67
19884;BME280;10104;50.732;10.174;2023-04-27T00:10:23;98077.03;;;7.29;64.01
19884;BME280;10104;50.732;10.174;2023-04-27T00:12:44;98074.88;;;7.17;65.62
19884;BME280;10104;50.732;10.174;2023-04-27T00:15:06;98082.56;;;6.94;67.58
19884;BME280;10104;50.732;10.174;2023-04-27T00:17:28;98077.16;;;7.12;65.65
19884;BME280;10104;50.732;10.174;2023-04-27T00:19:50;98075.66;;;7.01;66.41
19884;BME280;10104;50.732;10.174;2023-04-27T00:22:12;98069.19;;;6.79;68.99
19884;BME280;10104;50.732;10.174;2023-04-27T00:24:34;98072.66;;;6.88;67.38
19884;BME280;10104;50.732;10.174;2023-04-27T00:26:55;98070.06;;;6.96;66.32
19884;BME280;10104;50.732;10.174;2023-04-27T00:29:18;98069.25;;;7.04;65.69
19884;BME280;10104;50.732;10.174;2023-04-27T00:31:39;98072.53;;;7.06;65.08
19884;BME280;10104;50.732;10.174;2023-04-27T00:34:01;98074.88;;;7.09;65.17
19884;BME280;10104;50.732;10.174;2023-04-27T00:36:22;98071.75;;;7.13;64.51
19884;BME280;10104;50.732;10.174;2023-04-27T00:38:44;98070.28;;;7.19;64.42
19884;BME280;10104;50.732;10.174;2023-04-27T00:41:06;98068.13;;;7.22;64.04
19884;BME280;10104;50.732;10.174;2023-04-27T00:43:28;98062.84;;;7.22;63.58
19884;BME280;10104;50.732;10.174;2023-04-27T00:45:49;98068.78;;;7.24;63.83
19884;BME280;10104;50.732;10.174;2023-04-27T00:48:12;98063.69;;;7.23;64.18
19884;BME280;10104;50.732;10.174;2023-04-27T00:50:33;98071.59;;;7.23;64.70
19884;BME280;10104;50.732;10.174;2023-04-27T00:52:55;98064.19;;;7.18;65.26
19884;BME280;10104;50.732;10.174;2023-04-27T00:55:17;98070.09;;;7.12;66.76
19884;BME280;10104;50.732;10.174;2023-04-27T00:57:39;98066.00;;;7.18;66.29
19884;BME280;10104;50.732;10.174;2023-04-27T01:00:01;98065.16;;;7.17;66.11
19884;BME280;10104;50.732;10.174;2023-04-27T01:02:27;98072.69;;;7.04;68.77
19884;BME280;10104;50.732;10.174;2023-04-27T01:04:50;98075.16;;;6.98;70.15
19884;BME280;10104;50.732;10.174;2023-04-27T01:07:12;98070.22;;;6.95;70.38
19884;BME280;10104;50.732;10.174;2023-04-27T01:09:33;98062.00;;;7.06;69.05
19884;BME280;10104;50.732;10.174;2023-04-27T01:11:55;98058.25;;;7.08;68.74
19884;BME280;10104;50.732;10.174;2023-04-27T01:14:18;98065.81;;;7.03;69.63
19884;BME280;10104;50.732;10.174;2023-04-27T01:16:39;98069.75;;;7.07;69.90
19884;BME280;10104;50.732;10.174;2023-04-27T01:19:01;98070.56;;;7.00;71.16
19884;BME280;10104;50.732;10.174;2023-04-27T01:21:24;98064.47;;;6.99;71.32
19884;BME280;10104;50.732;10.174;2023-04-27T01:23:46;98056.25;;;7.02;70.75
19884;BME280;10104;50.732;10.174;2023-04-27T01:26:08;98058.06;;;7.02;71.02
19884;BME280;10104;50.732;10.174;2023-04-27T01:28:32;98057.38;;;6.91;71.94
19884;BME280;10104;50.732;10.174;2023-04-27T01:30:53;98065.94;;;6.94;72.07
19884;BME280;10104;50.732;10.174;2023-04-27T01:33:16;98066.47;;;6.97;71.43
19884;BME280;10104;50.732;10.174;2023-04-27T01:35:37;98067.44;;;7.04;70.54
19884;BME280;10104;50.732;10.174;2023-04-27T01:37:59;98067.25;;;6.98;72.15
19884;BME280;10104;50.732;10.174;2023-04-27T01:40:20;98069.44;;;7.02;71.90
19884;BME280;10104;50.732;10.174;2023-04-27T01:42:42;98069.25;;;6.96;72.19
19884;BME280;10104;50.732;10.174;2023-04-27T01:45:04;98059.22;;;7.07;71.46
19884;BME280;10104;50.732;10.174;2023-04-27T01:47:26;98060.38;;;7.05;71.24
19884;BME280;10104;50.732;10.174;2023-04-27T01:49:48;98067.78;;;7.01;72.40
19884;BME280;10104;50.732;10.174;2023-04-27T01:52:09;98061.34;;;7.04;71.41
19884;BME280;10104;50.732;10.174;2023-04-27T01:54:31;98064.16;;;7.02;72.15
19884;BME280;10104;50.732;10.174;2023-04-27T01:56:52;98067.47;;;7.12;71.14
19884;BME280;10104;50.732;10.174;2023-04-27T01:59:13;98076.53;;;7.18;71.02
19884;BME280;10104;50.732;10.174;2023-04-27T02:01:35;98076.38;;;7.19;70.40
19884;BME280;10104;50.732;10.174;2023-04-27T02:03:57;98069.44;;;7.18;70.10
19884;BME280;10104;50.732;10.174;2023-04-27T02:06:19;98070.94;;;7.21;70.45
19884;BME280;10104;50.732;10.174;2023-04-27T02:08:40;98075.03;;;7.23;70.58
19884;BME280;10104;50.732;10.174;2023-04-27T02:11:02;98077.69;;;7.15;71.51
19884;BME280;10104;50.732;10.174;2023-04-27T02:13:23;98088.69;;;7.03;72.94
19884;BME280;10104;50.732;10.174;2023-04-27T02:15:45;98086.19;;;7.01;72.86
19884;BME280;10104;50.732;10.174;2023-04-27T02:18:06;98088.84;;;7.01;73.30
19884;BME280;10104;50.732;10.174;2023-04-27T02:20:32;98092.94;;;6.96;73.31
19884;BME280;10104;50.732;10.174;2023-04-27T02:22:53;98101.84;;;7.03;72.58
19884;BME280;10104;50.732;10.174;2023-04-27T02:25:15;98100.03;;;7.11;71.89
19884;BME280;10104;50.732;10.174;2023-04-27T02:27:37;98103.84;;;7.17;71.21
19884;BME280;10104;50.732;10.174;2023-04-27T02:30:03;98103.53;;;7.20;71.27
19884;BME280;10104;50.732;10.174;2023-04-27T02:32:26;98101.72;;;7.20;71.28
19884;BME280;10104;50.732;10.174;2023-04-27T02:34:47;98109.78;;;7.19;72.76
19884;BME280;10104;50.732;10.174;2023-04-27T02:37:08;98110.75;;;7.18;72.54
19884;BME280;10104;50.732;10.174;2023-04-27T02:39:30;98122.44;;;7.15;72.66
19884;BME280;10104;50.732;10.174;2023-04-27T02:41:52;98119.44;;;7.02;74.51
19884;BME280;10104;50.732;10.174;2023-04-27T02:44:13;98124.06;;;7.16;72.88
19884;BME280;10104;50.732;10.174;2023-04-27T02:46:34;98117.81;;;7.17;72.11
19884;BME280;10104;50.732;10.174;2023-04-27T02:48:56;98124.09;;;7.24;71.63
19884;BME280;10104;50.732;10.174;2023-04-27T02:51:17;98122.97;;;7.27;71.19
19884;BME280;10104;50.732;10.174;2023-04-27T02:53:39;98121.66;;;7.31;70.68
19884;BME280;10104;50.732;10.174;2023-04-27T02:56:01;98115.72;;;7.21;72.72
19884;BME280;10104;50.732;10.174;2023-04-27T02:58:23;98118.66;;;7.18;73.58
19884;BME280;10104;50.732;10.174;2023-04-27T03:00:44;98117.34;;;7.14;73.70
19884;BME280;10104;50.732;10.174;2023-04-27T03:03:08;98113.53;;;7.08;74.60
19884;BME280;10104;50.732;10.174;2023-04-27T03:05:33;98113.72;;;7.15;73.61
19884;BME280;10104;50.732;10.174;2023-04-27T03:07:54;98122.94;;;7.19;73.14
19884;BME280;10104;50.732;10.174;2023-04-27T03:10:16;98120.13;;;7.12;74.95
19884;BME280;10104;50.732;10.174;2023-04-27T03:12:37;98118.91;;;6.99;75.36
19884;BME280;10104;50.732;10.174;2023-04-27T03:14:59;98129.44;;;6.90;75.91
19884;BME280;10104;50.732;10.174;2023-04-27T03:17:21;98126.00;;;6.98;74.88
19884;BME280;10104;50.732;10.174;2023-04-27T03:19:42;98135.06;;;7.04;73.49
19884;BME280;10104;50.732;10.174;2023-04-27T03:22:04;98138.88;;;7.09;73.05
19884;BME280;10104;50.732;10.174;2023-04-27T03:24:25;98128.53;;;7.16;72.29
19884;BME280;10104;50.732;10.174;2023-04-27T03:26:47;98124.75;;;7.18;72.08
19884;BME280;10104;50.732;10.174;2023-04-27T03:29:09;98121.81;;;7.21;71.60
19884;BME280;10104;50.732;10.174;2023-04-27T03:31:30;98118.53;;;7.27;71.18
19884;BME280;10104;50.732;10.174;2023-04-27T03:33:52;98124.91;;;7.17;71.88
19884;BME280;10104;50.732;10.174;2023-04-27T03:36:14;98133.66;;;6.75;76.51
19884;BME280;10104;50.732;10.174;2023-04-27T03:38:35;98132.97;;;6.73;76.30
19884;BME280;10104;50.732;10.174;2023-04-27T03:40:57;98121.88;;;6.96;73.88
19884;BME280;10104;50.732;10.174;2023-04-27T03:43:19;98122.91;;;7.03;73.28
19884;BME280;10104;50.732;10.174;2023-04-27T03:45:41;98123.25;;;7.08;72.72
19884;BME280;10104;50.732;10.174;2023-04-27T03:48:03;98124.03;;;7.00;73.86
19884;BME280;10104;50.732;10.174;2023-04-27T03:50:25;98128.63;;;6.98;73.86
19884;BME280;10104;50.732;10.174;2023-04-27T03:52:49;98132.28;;;6.97;73.78
19884;BME280;10104;50.732;10.174;2023-04-27T03:55:11;98137.88;;;7.02;73.37
19884;BME280;10104;50.732;10.174;2023-04-27T03:57:32;98124.91;;;7.09;72.34
19884;BME280;10104;50.732;10.174;2023-04-27T03:59:54;98123.59;;;7.13;72.00
19884;BME280;10104;50.732;10.174;2023-04-27T04:02:15;98128.53;;;7.16;71.92
19884;BME280;10104;50.732;10.174;2023-04-27T04:04:37;98135.94;;;7.20;71.51
19884;BME280;10104;50.732;10.174;2023-04-27T04:06:59;98132.00;;;7.24;71.08
19884;BME280;10104;50.732;10.174;2023-04-27T04:09:20;98127.41;;;7.26;71.12
19884;BME280;10104;50.732;10.174;2023-04-27T04:11:44;98126.25;;;7.29;70.92
19884;BME280;10104;50.732;10.174;2023-04-27T04:14:05;98124.94;;;7.33;70.64
19884;BME280;10104;50.732;10.174;2023-04-27T04:16:27;98128.75;;;7.39;70.42
19884;BME280;10104;50.732;10.174;2023-04-27T04:18:48;98129.91;;;7.44;69.92
19884;BME280;10104;50.732;10.174;2023-04-27T04:21:10;98114.91;;;7.37;70.34
19884;BME280;10104;50.732;10.174;2023-04-27T04:23:31;98123.16;;;7.50;69.86
19884;BME280;10104;50.732;10.174;2023-04-27T04:25:54;98119.22;;;7.46;69.94
19884;BME280;10104;50.732;10.174;2023-04-27T04:28:19;98127.41;;;7.35;71.76
19884;BME280;10104;50.732;10.174;2023-04-27T04:30:41;98126.59;;;7.34;71.50
19884;BME280;10104;50.732;10.174;2023-04-27T04:33:03;98135.16;;;7.36;71.92
19884;BME280;10104;50.732;10.174;2023-04-27T04:35:25;98135.00;;;7.38;72.12
19884;BME280;10104;50.732;10.174;2023-04-27T04:37:46;98132.03;;;7.41;72.07
19884;BME280;10104;50.732;10.174;2023-04-27T04:40:08;98139.91;;;7.24;73.55
19884;BME280;10104;50.732;10.174;2023-04-27T04:42:30;98146.91;;;7.00;76.15
19884;BME280;10104;50.732;10.174;2023-04-27T04:44:53;98129.44;;;6.99;75.92
19884;BME280;10104;50.732;10.174;2023-04-27T04:47:16;98141.16;;;7.04;75.28
19884;BME280;10104;50.732;10.174;2023-04-27T04:49:38;98137.91;;;7.18;74.58
19884;BME280;10104;50.732;10.174;2023-04-27T04:51:59;98140.56;;;7.26;74.15
19884;BME280;10104;50.732;10.174;2023-04-27T04:54:21;98143.56;;;7.40;73.63
19884;BME280;10104;50.732;10.174;2023-04-27T04:56:42;98131.69;;;7.36;73.95
19884;BME280;10104;50.732;10.174;2023-04-27T04:59:04;98119.72;;;7.57;72.74
19884;BME280;10104;50.732;10.174;2023-04-27T05:01:25;98125.63;;;7.67;72.11
19884;BME280;10104;50.732;10.174;2023-04-27T05:03:47;98124.84;;;7.59;73.15
19884;BME280;10104;50.732;10.174;2023-04-27T05:06:09;98139.78;;;7.34;75.12
19884;BME280;10104;50.732;10.174;2023-04-27T05:08:30;98147.31;;;7.29;75.69
19884;BME280;10104;50.732;10.174;2023-04-27T05:10:52;98148.13;;;7.29;75.92
19884;BME280;10104;50.732;10.174;2023-04-27T05:13:14;98143.59;;;7.56;74.19
19884;BME280;10104;50.732;10.174;2023-04-27T05:15:36;98148.41;;;7.77;72.40
19884;BME280;10104;50.732;10.174;2023-04-27T05:17:57;98156.13;;;7.94;71.67
19884;BME280;10104;50.732;10.174;2023-04-27T05:20:19;98155.28;;;8.10;70.96
19884;BME280;10104;50.732;10.174;2023-04-27T05:22:41;98161.88;;;8.22;70.39
19884;BME280;10104;50.732;10.174;2023-04-27T05:25:02;98158.75;;;8.19;70.66
19884;BME280;10104;50.732;10.174;2023-04-27T05:27:25;98160.41;;;8.03;70.86
19884;BME280;10104;50.732;10.174;2023-04-27T05:29:46;98158.59;;;8.04;71.79
19884;BME280;10104;50.732;10.174;2023-04-27T05:32:07;98163.88;;;8.20;71.24
19884;BME280;10104;50.732;10.174;2023-04-27T05:34:30;98155.97;;;8.36;70.69
19884;BME280;10104;50.732;10.174;2023-04-27T05:36:51;98165.50;;;8.29;70.63
19884;BME280;10104;50.732;10.174;2023-04-27T05:39:12;98175.09;;;8.30;70.46
19884;BME280;10104;50.732;10.174;2023-04-27T05:41:34;98172.09;;;8.58;69.10
19884;BME280;10104;50.732;10.174;2023-04-27T05:43:56;98171.91;;;8.59;68.59
19884;BME280;10104;50.732;10.174;2023-04-27T05:46:18;98170.09;;;8.68;68.01
19884;BME280;10104;50.732;10.174;2023-04-27T05:48:39;98170.72;;;8.78;67.99
19884;BME280;10104;50.732;10.174;2023-04-27T05:51:02;98162.00;;;9.08;66.57
19884;BME280;10104;50.732;10.174;2023-04-27T05:53:23;98155.44;;;9.35;65.45
19884;BME280;10104;50.732;10.174;2023-04-27T05:55:45;98166.19;;;9.33;62.80
19884;BME280;10104;50.732;10.174;2023-04-27T05:58:06;98169.38;;;9.52;62.21
19884;BME280;10104;50.732;10.174;2023-04-27T06:00:29;98171.56;;;9.48;61.23
19884;BME280;10104;50.732;10.174;2023-04-27T06:02:52;98169.81;;;9.32;60.73
19884;BME280;10104;50.732;10.174;2023-04-27T06:05:13;98172.00;;;9.29;60.79
19884;BME280;10104;50.732;10.174;2023-04-27T06:07:35;98174.81;;;9.27;60.11
19884;BME280;10104;50.732;10.174;2023-04-27T06:09:58;98168.78;;;9.42;59.89
19884;BME280;10104;50.732;10.174;2023-04-27T06:12:19;98171.03;;;9.53;60.05
19884;BME280;10104;50.732;10.174;2023-04-27T06:14:40;98159.00;;;9.73;58.95
19884;BME280;10104;50.732;10.174;2023-04-27T06:17:02;98169.06;;;9.55;58.86
19884;BME280;10104;50.732;10.174;2023-04-27T06:19:24;98166.81;;;9.44;59.56
19884;BME280;10104;50.732;10.174;2023-04-27T06:21:47;98179.41;;;9.33;59.74
19884;BME280;10104;50.732;10.174;2023-04-27T06:24:08;98182.78;;;9.19;59.32
19884;BME280;10104;50.732;10.174;2023-04-27T06:26:30;98176.75;;;9.33;59.89
19884;BME280;10104;50.732;10.174;2023-04-27T06:28:51;98171.00;;;9.30;59.06
19884;BME280;10104;50.732;10.174;2023-04-27T06:31:13;98173.53;;;9.15;57.60
19884;BME280;10104;50.732;10.174;2023-04-27T06:33:34;98180.19;;;9.03;57.48
19884;BME280;10104;50.732;10.174;2023-04-27T06:35:56;98183.97;;;9.09;56.33
19884;BME280;10104;50.732;10.174;2023-04-27T06:38:17;98182.44;;;9.22;53.12
19884;BME280;10104;50.732;10.174;2023-04-27T06:40:38;98185.38;;;9.27;53.87
19884;BME280;10104;50.732;10.174;2023-04-27T06:43:00;98182.91;;;9.26;55.17
19884;BME280;10104;50.732;10.174;2023-04-27T06:45:22;98182.91;;;9.26;55.46
19884;BME280;10104;50.732;10.174;2023-04-27T06:47:43;98178.38;;;9.43;55.43
19884;BME280;10104;50.732;10.174;2023-04-27T06:50:05;98183.38;;;9.60;55.41
19884;BME280;10104;50.732;10.174;2023-04-27T06:52:27;98175.16;;;9.78;55.34
19884;BME280;10104;50.732;10.174;2023-04-27T06:54:48;98183.50;;;9.90;55.39
19884;BME280;10104;50.732;10.174;2023-04-27T06:57:10;98183.47;;;9.98;54.58
19884;BME280;10104;50.732;10.174;2023-04-27T06:59:31;98185.34;;;10.12;53.33
19884;BME280;10104;50.732;10.174;2023-04-27T07:01:53;98184.69;;;10.10;51.17
19884;BME280;10104;50.732;10.174;2023-04-27T07:04:14;98184.34;;;9.90;51.47
19884;BME280;10104;50.732;10.174;2023-04-27T07:06:36;98182.84;;;9.88;50.80
19884;BME280;10104;50.732;10.174;2023-04-27T07:08:58;98185.66;;;10.17;51.97
19884;BME280;10104;50.732;10.174;2023-04-27T07:11:20;98182.53;;;10.36;50.99
19884;BME280;10104;50.732;10.174;2023-04-27T07:13:42;98181.34;;;10.53;49.82
19884;BME280;10104;50.732;10.174;2023-04-27T07:16:03;98184.38;;;10.65;49.51
19884;BME280;10104;50.732;10.174;2023-04-27T07:18:25;98181.91;;;10.64;48.98
19884;BME280;10104;50.732;10.174;2023-04-27T07:20:48;98186.19;;;10.65;49.32
19884;BME280;10104;50.732;10.174;2023-04-27T07:23:10;98188.69;;;10.66;49.22
19884;BME280;10104;50.732;10.174;2023-04-27T07:25:31;98194.69;;;10.60;49.07
19884;BME280;10104;50.732;10.174;2023-04-27T07:27:53;98191.13;;;10.68;49.71
19884;BME280;10104;50.732;10.174;2023-04-27T07:30:15;98194.31;;;10.63;48.08
19884;BME280;10104;50.732;10.174;2023-04-27T07:32:39;98193.88;;;10.74;49.15
19884;BME280;10104;50.732;10.174;2023-04-27T07:35:01;98189.78;;;10.72;49.39
19884;BME280;10104;50.732;10.174;2023-04-27T07:37:23;98195.91;;;11.02;48.66
19884;BME280;10104;50.732;10.174;2023-04-27T07:39:45;98198.34;;;11.32;47.05
19884;BME280;10104;50.732;10.174;2023-04-27T07:42:07;98193.84;;;11.48;46.78
19884;BME280;10104;50.732;10.174;2023-04-27T07:44:30;98192.47;;;11.52;47.11
19884;BME280;10104;50.732;10.174;2023-04-27T07:46:51;98201.13;;;11.75;47.33
19884;BME280;10104;50.732;10.174;2023-04-27T07:49:15;98193.22;;;11.82;46.86
19884;BME280;10104;50.732;10.174;2023-04-27T07:51:36;98193.13;;;11.90;46.93
19884;BME280;10104;50.732;10.174;2023-04-27T07:53:58;98186.66;;;12.20;46.59
19884;BME280;10104;50.732;10.174;2023-04-27T07:56:19;98182.59;;;12.45;45.61
19884;BME280;10104;50.732;10.174;2023-04-27T07:58:42;98183.53;;;12.38;44.87
19884;BME280;10104;50.732;10.174;2023-04-27T08:01:03;98185.66;;;12.21;44.74
19884;BME280;10104;50.732;10.174;2023-04-27T08:03:25;98180.88;;;12.38;44.37
19884;BME280;10104;50.732;10.174;2023-04-27T08:05:47;98189.44;;;12.33;43.90
19884;BME280;10104;50.732;10.174;2023-04-27T08:08:09;98188.22;;;12.36;44.86
19884;BME280;10104;50.732;10.174;2023-04-27T08:10:31;98191.09;;;12.41;44.86
19884;BME280;10104;50.732;10.174;2023-04-27T08:12:53;98189.53;;;12.46;44.94
19884;BME280;10104;50.732;10.174;2023-04-27T08:15:14;98191.94;;;12.41;42.99
19884;BME280;10104;50.732;10.174;2023-04-27T08:17:36;98182.91;;;12.36;43.13
19884;BME280;10104;50.732;10.174;2023-04-27T08:19:59;98179.25;;;12.37;43.97
19884;BME280;10104;50.732;10.174;2023-04-27T08:22:20;98189.97;;;12.29;43.82
19884;BME280;10104;50.732;10.174;2023-04-27T08:24:42;98185.78;;;12.13;42.60
19884;BME280;10104;50.732;10.174;2023-04-27T08:27:05;98177.00;;;12.12;43.47
19884;BME280;10104;50.732;10.174;2023-04-27T08:29:26;98174.34;;;12.12;42.83
19884;BME280;10104;50.732;10.174;2023-04-27T08:31:49;98185.06;;;12.26;43.26
19884;BME280;10104;50.732;10.174;2023-04-27T08:34:11;98176.97;;;12.62;43.08
19884;BME280;10104;50.732;10.174;2023-04-27T08:36:33;98174.91;;;12.91;42.04
19884;BME280;10104;50.732;10.174;2023-04-27T08:38:54;98174.97;;;13.05;41.45
19884;BME280;10104;50.732;10.174;2023-04-27T08:41:20;98174.69;;;13.21;41.86
19884;BME280;10104;50.732;10.174;2023-04-27T08:43:42;98170.13;;;13.08;41.42
19884;BME280;10104;50.732;10.174;2023-04-27T08:46:05;98168.53;;;13.14;41.41
19884;BME280;10104;50.732;10.174;2023-04-27T08:48:27;98175.00;;;13.39;42.25
19884;BME280;10104;50.732;10.174;2023-04-27T08:50:49;98173.66;;;13.22;40.93
19884;BME280;10104;50.732;10.174;2023-04-27T08:53:21;98162.88;;;12.95;41.72
19884;BME280;10104;50.732;10.174;2023-04-27T08:55:43;98173.56;;;13.09;41.39
19884;BME280;10104;50.732;10.174;2023-04-27T08:58:04;98168.66;;;13.06;41.52
19884;BME280;10104;50.732;10.174;2023-04-27T09:00:39;98163.25;;;13.27;42.32
19884;BME280;10104;50.732;10.174;2023-04-27T09:03:04;98169.66;;;13.39;42.70
19884;BME280;10104;50.732;10.174;2023-04-27T09:05:26;98166.63;;;13.49;40.34
19884;BME280;10104;50.732;10.174;2023-04-27T09:07:58;98169.50;;;13.54;40.38
19884;BME280;10104;50.732;10.174;2023-04-27T09:10:20;98166.44;;;13.57;39.19
19884;BME280;10104;50.732;10.174;2023-04-27T09:12:53;98167.81;;;13.33;39.73
19884;BME280;10104;50.732;10.174;2023-04-27T09:15:15;98166.75;;;13.34;40.22
19884;BME280;10104;50.732;10.174;2023-04-27T09:17:36;98157.41;;;13.58;40.45
19884;BME280;10104;50.732;10.174;2023-04-27T09:20:08;98157.94;;;14.07;40.06
19884;BME280;10104;50.732;10.174;2023-04-27T09:22:47;98154.88;;;14.37;39.53
19884;BME280;10104;50.732;10.174;2023-04-27T09:25:09;98159.72;;;15.06;39.58
19884;BME280;10104;50.732;10.174;2023-04-27T09:27:31;98153.19;;;15.46;39.03
19884;BME280;10104;50.732;10.174;2023-04-27T09:29:52;98155.84;;;15.59;37.86
19884;BME280;10104;50.732;10.174;2023-04-27T09:32:15;98154.28;;;15.76;37.66
19884;BME280;10104;50.732;10.174;2023-04-27T09:34:38;98150.31;;;16.17;36.95
19884;BME280;10104;50.732;10.174;2023-04-27T09:37:01;98148.38;;;15.99;37.20
19884;BME280;10104;50.732;10.174;2023-04-27T09:39:23;98146.03;;;16.66;37.40
19884;BME280;10104;50.732;10.174;2023-04-27T09:41:44;98141.72;;;16.65;35.20
19884;BME280;10104;50.732;10.174;2023-04-27T09:44:07;98143.47;;;16.77;35.31
19884;BME280;10104;50.732;10.174;2023-04-27T09:46:32;98143.22;;;16.79;36.08
19884;BME280;10104;50.732;10.174;2023-04-27T09:48:55;98146.50;;;16.56;35.80
19884;BME280;10104;50.732;10.174;2023-04-27T09:51:16;98155.09;;;16.40;35.89
19884;BME280;10104;50.732;10.174;2023-04-27T09:53:43;98140.09;;;16.64;37.33
19884;BME280;10104;50.732;10.174;2023-04-27T10:01:44;98143.72;;;18.32;35.06
19884;BME280;10104;50.732;10.174;2023-04-27T10:07:00;98138.34;;;18.20;33.66
19884;BME280;10104;50.732;10.174;2023-04-27T10:09:23;98135.91;;;18.30;33.07
19884;BME280;10104;50.732;10.174;2023-04-27T10:11:44;98134.34;;;18.11;34.23
19884;BME280;10104;50.732;10.174;2023-04-27T10:14:09;98138.31;;;17.78;33.86
19884;BME280;10104;50.732;10.174;2023-04-27T10:16:45;98139.94;;;17.68;33.82
19884;BME280;10104;50.732;10.174;2023-04-27T10:19:08;98131.88;;;17.68;33.54
19884;BME280;10104;50.732;10.174;2023-04-27T10:21:29;98142.38;;;17.69;33.85
19884;BME280;10104;50.732;10.174;2023-04-27T10:23:53;98131.88;;;18.09;35.76
19884;BME280;10104;50.732;10.174;2023-04-27T10:26:25;98126.50;;;18.63;33.82
19884;BME280;10104;50.732;10.174;2023-04-27T10:28:59;98116.72;;;18.03;34.08
19884;BME280;10104;50.732;10.174;2023-04-27T10:31:27;98134.34;;;17.51;34.07
19884;BME280;10104;50.732;10.174;2023-04-27T10:33:49;98134.81;;;17.30;35.25
19884;BME280;10104;50.732;10.174;2023-04-27T10:36:14;98132.06;;;17.36;35.17
19884;BME280;10104;50.732;10.174;2023-04-27T10:38:39;98134.88;;;16.19;34.94
19884;BME280;10104;50.732;10.174;2023-04-27T10:41:01;98134.00;;;16.00;36.01
19884;BME280;10104;50.732;10.174;2023-04-27T10:43:24;98128.13;;;15.92;36.03
19884;BME280;10104;50.732;10.174;2023-04-27T10:45:47;98123.16;;;15.95;36.43
19884;BME280;10104;50.732;10.174;2023-04-27T10:48:11;98123.47;;;16.05;37.84
19884;BME280;10104;50.732;10.174;2023-04-27T10:50:34;98118.59;;;16.27;37.96
19884;BME280;10104;50.732;10.174;2023-04-27T10:53:15;98113.03;;;16.53;37.22
19884;BME280;10104;50.732;10.174;2023-04-27T10:55:37;98112.47;;;16.70;36.08
19884;BME280;10104;50.732;10.174;2023-04-27T10:57:58;98109.38;;;16.91;35.65
19884;BME280;10104;50.732;10.174;2023-04-27T11:00:40;98106.69;;;16.91;35.55
19884;BME280;10104;50.732;10.174;2023-04-27T11:03:14;98097.84;;;16.90;35.46
19884;BME280;10104;50.732;10.174;2023-04-27T11:05:37;98093.75;;;17.06;34.23
19884;BME280;10104;50.732;10.174;2023-04-27T11:08:18;98091.28;;;17.05;36.44
19884;BME280;10104;50.732;10.174;2023-04-27T11:10:46;98097.84;;;16.72;34.70
19884;BME280;10104;50.732;10.174;2023-04-27T11:13:24;98093.63;;;17.31;35.79
19884;BME280;10104;50.732;10.174;2023-04-27T11:15:47;98093.84;;;17.29;34.56
19884;BME280;10104;50.732;10.174;2023-04-27T11:18:09;98097.53;;;17.65;34.38
19884;BME280;10104;50.732;10.174;2023-04-27T11:20:31;98088.16;;;17.86;35.06
19884;BME280;10104;50.732;10.174;2023-04-27T11:22:52;98091.66;;;17.86;34.85
19884;BME280;10104;50.732;10.174;2023-04-27T11:25:14;98095.66;;;17.65;35.02
19884;BME280;10104;50.732;10.174;2023-04-27T11:27:39;98104.38;;;17.61;35.06
19884;BME280;10104;50.732;10.174;2023-04-27T11:30:01;98102.03;;;17.16;35.23
19884;BME280;10104;50.732;10.174;2023-04-27T11:32:24;98100.66;;;17.14;35.24
19884;BME280;10104;50.732;10.174;2023-04-27T11:34:50;98103.81;;;17.22;33.72
19884;BME280;10104;50.732;10.174;2023-04-27T11:37:20;98099.50;;;17.39;34.76
19884;BME280;10104;50.732;10.174;2023-04-27T11:39:44;98093.66;;;17.61;34.65
19884;BME280;10104;50.732;10.174;2023-04-27T11:42:26;98095.97;;;17.87;34.96
19884;BME280;10104;50.732;10.174;2023-04-27T11:44:56;98101.97;;;18.12;33.94
19884;BME280;10104;50.732;10.174;2023-04-27T11:47:19;98094.53;;;18.73;34.46
19884;BME280;10104;50.732;10.174;2023-04-27T11:49:45;98092.53;;;19.31;33.45
19884;BME280;10104;50.732;10.174;2023-04-27T11:52:07;98082.03;;;20.20;31.45
19884;BME280;10104;50.732;10.174;2023-04-27T11:54:28;98080.41;;;20.52;31.62
19884;BME280;10104;50.732;10.174;2023-04-27T11:56:50;98089.13;;;20.26;31.59
19884;BME280;10104;50.732;10.174;2023-04-27T11:59:21;98087.66;;;20.52;30.59
19884;BME280;10104;50.732;10.174;2023-04-27T12:01:46;98088.03;;;20.77;30.81
19884;BME280;10104;50.732;10.174;2023-04-27T12:04:08;98089.25;;;21.08;30.23
19884;BME280;10104;50.732;10.174;2023-04-27T12:06:29;98081.22;;;20.91;30.54
19884;BME280;10104;50.732;10.174;2023-04-27T12:08:57;98077.81;;;21.18;29.61
19884;BME280;10104;50.732;10.174;2023-04-27T12:11:18;98078.28;;;21.15;30.03
19884;BME280;10104;50.732;10.174;2023-04-27T12:13:40;98073.66;;;21.54;28.17
19884;BME280;10104;50.732;10.174;2023-04-27T12:16:01;98077.78;;;22.62;29.38
19884;BME280;10104;50.732;10.174;2023-04-27T12:18:22;98076.91;;;22.88;27.42
19884;BME280;10104;50.732;10.174;2023-04-27T12:20:44;98067.97;;;23.55;27.11
19884;BME280;10104;50.732;10.174;2023-04-27T12:23:06;98064.53;;;24.31;28.04
19884;BME280;10104;50.732;10.174;2023-04-27T12:25:27;98061.72;;;24.91;25.20
19884;BME280;10104;50.732;10.174;2023-04-27T12:27:49;98053.16;;;25.33;27.18
19884;BME280;10104;50.732;10.174;2023-04-27T12:30:11;98042.63;;;26.10;25.09
19884;BME280;10104;50.732;10.174;2023-04-27T12:32:33;98061.31;;;26.98;24.08
19884;BME280;10104;50.732;10.174;2023-04-27T12:34:55;98050.00;;;28.08;22.95
19884;BME280;10104;50.732;10.174;2023-04-27T12:37:16;98051.63;;;27.91;22.27
19884;BME280;10104;50.732;10.174;2023-04-27T12:39:38;98046.78;;;28.06;21.87